sensor_id;sensor_type;location;lat;lon;timestamp;temperature;humidity
13186;DHT22;6658;53.080;7.428;2022-09-09T00:01:23;13.40;99.90
13186;DHT22;6658;53.080;7.428;2022-09-09T00:07:11;13.30;99.90
13186;DHT22;6658;53.080;7.428;2022-09-09T00:09:46;13.30;99.90
13186;DHT22;6658;53.080;7.428;2022-09-09T00:15:19;13.40;99.90
13186;DHT22;6658;53.080;7.428;2022-09-09T00:18:11;13.40;99.90
13186;DHT22;6658;53.080;7.428;2022-09-09T00:21:07;13.50;99.90
13186;DHT22;6658;53.080;7.428;2022-09-09T00:23:41;13.50;99.90
13186;DHT22;6658;53.080;7.428;2022-09-09T00:26:17;13.50;99.90
13186;DHT22;6658;53.080;7.428;2022-09-09T00:29:14;13.50;99.90
13186;DHT22;6658;53.080;7.428;2022-09-09T00:31:45;13.50;99.90
13186;DHT22;6658;53.080;7.428;2022-09-09T00:34:13;13.60;99.90
13186;DHT22;6658;53.080;7.428;2022-09-09T00:36:41;13.70;99.90
13186;DHT22;6658;53.080;7.428;2022-09-09T00:39:27;13.80;99.90
13186;DHT22;6658;53.080;7.428;2022-09-09T00:42:13;13.70;99.90
13186;DHT22;6658;53.080;7.428;2022-09-09T00:47:34;13.70;99.90
13186;DHT22;6658;53.080;7.428;2022-09-09T00:55:52;13.50;99.90
13186;DHT22;6658;53.080;7.428;2022-09-09T00:58:19;13.40;99.90
13186;DHT22;6658;53.080;7.428;2022-09-09T01:00:50;13.40;99.90
13186;DHT22;6658;53.080;7.428;2022-09-09T01:11:01;13.40;99.90
13186;DHT22;6658;53.080;7.428;2022-09-09T01:13:35;13.30;99.90
13186;DHT22;6658;53.080;7.428;2022-09-09T01:16:03;13.30;99.90
13186;DHT22;6658;53.080;7.428;2022-09-09T01:18:33;13.30;99.90
13186;DHT22;6658;53.080;7.428;2022-09-09T01:28:58;13.20;99.90
13186;DHT22;6658;53.080;7.428;2022-09-09T01:31:32;13.30;99.90
13186;DHT22;6658;53.080;7.428;2022-09-09T01:33:58;13.30;99.90
13186;DHT22;6658;53.080;7.428;2022-09-09T01:36:25;13.30;99.90
13186;DHT22;6658;53.080;7.428;2022-09-09T01:38:52;13.30;99.90
13186;DHT22;6658;53.080;7.428;2022-09-09T01:41:18;13.20;99.90
13186;DHT22;6658;53.080;7.428;2022-09-09T01:43:44;13.20;99.90
13186;DHT22;6658;53.080;7.428;2022-09-09T01:46:10;13.30;99.90
13186;DHT22;6658;53.080;7.428;2022-09-09T01:48:37;13.30;99.90
13186;DHT22;6658;53.080;7.428;2022-09-09T01:51:04;13.30;99.90
13186;DHT22;6658;53.080;7.428;2022-09-09T01:53:29;13.30;99.90
13186;DHT22;6658;53.080;7.428;2022-09-09T01:59:30;13.30;99.90
13186;DHT22;6658;53.080;7.428;2022-09-09T02:07:19;13.40;99.90
13186;DHT22;6658;53.080;7.428;2022-09-09T02:09:51;13.50;99.90
13186;DHT22;6658;53.080;7.428;2022-09-09T02:12:18;13.50;99.90
13186;DHT22;6658;53.080;7.428;2022-09-09T02:14:55;13.50;99.90
13186;DHT22;6658;53.080;7.428;2022-09-09T02:17:28;13.60;99.90
13186;DHT22;6658;53.080;7.428;2022-09-09T02:20:03;13.60;99.90
13186;DHT22;6658;53.080;7.428;2022-09-09T02:22:31;13.60;99.90
13186;DHT22;6658;53.080;7.428;2022-09-09T02:25:00;13.60;99.90
13186;DHT22;6658;53.080;7.428;2022-09-09T02:27:27;13.60;99.90
13186;DHT22;6658;53.080;7.428;2022-09-09T02:29:55;13.60;99.90
13186;DHT22;6658;53.080;7.428;2022-09-09T02:32:23;13.60;99.90
13186;DHT22;6658;53.080;7.428;2022-09-09T02:35:03;13.60;99.90
13186;DHT22;6658;53.080;7.428;2022-09-09T02:37:35;13.50;99.90
13186;DHT22;6658;53.080;7.428;2022-09-09T02:40:12;13.60;99.90
13186;DHT22;6658;53.080;7.428;2022-09-09T02:42:43;13.60;99.90
13186;DHT22;6658;53.080;7.428;2022-09-09T02:45:11;13.60;99.90
13186;DHT22;6658;53.080;7.428;2022-09-09T02:47:38;13.60;99.90
13186;DHT22;6658;53.080;7.428;2022-09-09T02:50:35;13.60;99.90
13186;DHT22;6658;53.080;7.428;2022-09-09T02:55:47;13.60;99.90
13186;DHT22;6658;53.080;7.428;2022-09-09T02:58:16;13.70;99.90
13186;DHT22;6658;53.080;7.428;2022-09-09T03:00:45;13.60;99.90
13186;DHT22;6658;53.080;7.428;2022-09-09T03:03:11;13.60;99.90
13186;DHT22;6658;53.080;7.428;2022-09-09T03:05:37;13.60;99.90
13186;DHT22;6658;53.080;7.428;2022-09-09T03:08:04;13.60;99.90
13186;DHT22;6658;53.080;7.428;2022-09-09T03:10:31;13.60;99.90
13186;DHT22;6658;53.080;7.428;2022-09-09T03:12:57;13.60;99.90
13186;DHT22;6658;53.080;7.428;2022-09-09T03:15:23;13.50;99.90
13186;DHT22;6658;53.080;7.428;2022-09-09T03:17:48;13.50;99.90
13186;DHT22;6658;53.080;7.428;2022-09-09T03:20:14;13.40;99.90
13186;DHT22;6658;53.080;7.428;2022-09-09T03:22:40;13.50;99.90
13186;DHT22;6658;53.080;7.428;2022-09-09T03:25:06;13.40;99.90
13186;DHT22;6658;53.080;7.428;2022-09-09T03:27:32;13.40;99.90
13186;DHT22;6658;53.080;7.428;2022-09-09T03:29:58;13.30;99.90
13186;DHT22;6658;53.080;7.428;2022-09-09T03:32:24;13.40;99.90
13186;DHT22;6658;53.080;7.428;2022-09-09T03:34:52;13.30;99.90
13186;DHT22;6658;53.080;7.428;2022-09-09T03:37:18;13.30;99.90
13186;DHT22;6658;53.080;7.428;2022-09-09T03:39:45;13.30;99.90
13186;DHT22;6658;53.080;7.428;2022-09-09T03:42:14;13.30;99.90
13186;DHT22;6658;53.080;7.428;2022-09-09T03:44:44;13.30;99.90
13186;DHT22;6658;53.080;7.428;2022-09-09T03:47:12;13.30;99.90
13186;DHT22;6658;53.080;7.428;2022-09-09T03:49:38;13.40;99.90
13186;DHT22;6658;53.080;7.428;2022-09-09T03:52:04;13.50;99.90
13186;DHT22;6658;53.080;7.428;2022-09-09T03:54:29;13.50;99.90
13186;DHT22;6658;53.080;7.428;2022-09-09T03:56:55;13.60;99.90
13186;DHT22;6658;53.080;7.428;2022-09-09T03:59:21;13.70;99.90
13186;DHT22;6658;53.080;7.428;2022-09-09T04:01:46;13.70;99.90
13186;DHT22;6658;53.080;7.428;2022-09-09T04:04:13;13.80;99.90
13186;DHT22;6658;53.080;7.428;2022-09-09T04:06:38;13.80;99.90
13186;DHT22;6658;53.080;7.428;2022-09-09T04:09:04;13.90;99.90
13186;DHT22;6658;53.080;7.428;2022-09-09T04:11:29;14.00;99.90
13186;DHT22;6658;53.080;7.428;2022-09-09T04:13:55;14.00;99.90
13186;DHT22;6658;53.080;7.428;2022-09-09T04:16:21;14.00;99.90
13186;DHT22;6658;53.080;7.428;2022-09-09T04:18:46;14.00;99.90
13186;DHT22;6658;53.080;7.428;2022-09-09T04:21:12;14.00;99.90
13186;DHT22;6658;53.080;7.428;2022-09-09T04:23:38;14.10;99.90
13186;DHT22;6658;53.080;7.428;2022-09-09T04:26:05;14.10;99.90
13186;DHT22;6658;53.080;7.428;2022-09-09T04:28:33;14.10;99.90
13186;DHT22;6658;53.080;7.428;2022-09-09T04:31:12;14.10;99.90
13186;DHT22;6658;53.080;7.428;2022-09-09T04:33:39;14.10;99.90
13186;DHT22;6658;53.080;7.428;2022-09-09T04:36:05;14.10;99.90
13186;DHT22;6658;53.080;7.428;2022-09-09T04:38:31;14.10;99.90
13186;DHT22;6658;53.080;7.428;2022-09-09T04:40:57;14.10;99.90
13186;DHT22;6658;53.080;7.428;2022-09-09T04:43:24;14.10;99.90
13186;DHT22;6658;53.080;7.428;2022-09-09T04:45:52;14.10;99.90
13186;DHT22;6658;53.080;7.428;2022-09-09T04:48:18;14.10;99.90
13186;DHT22;6658;53.080;7.428;2022-09-09T04:50:44;14.20;99.90
13186;DHT22;6658;53.080;7.428;2022-09-09T04:53:18;14.10;99.90
13186;DHT22;6658;53.080;7.428;2022-09-09T04:55:44;14.10;99.90
13186;DHT22;6658;53.080;7.428;2022-09-09T04:58:09;14.10;99.90
13186;DHT22;6658;53.080;7.428;2022-09-09T05:00:35;14.20;99.90
13186;DHT22;6658;53.080;7.428;2022-09-09T05:03:05;14.20;99.90
13186;DHT22;6658;53.080;7.428;2022-09-09T05:05:32;14.20;99.90
13186;DHT22;6658;53.080;7.428;2022-09-09T05:08:06;14.20;99.90
13186;DHT22;6658;53.080;7.428;2022-09-09T05:10:34;14.20;99.90
13186;DHT22;6658;53.080;7.428;2022-09-09T05:13:01;14.20;99.90
13186;DHT22;6658;53.080;7.428;2022-09-09T05:15:27;14.20;99.90
13186;DHT22;6658;53.080;7.428;2022-09-09T05:17:57;14.20;99.90
13186;DHT22;6658;53.080;7.428;2022-09-09T05:20:23;14.20;99.90
13186;DHT22;6658;53.080;7.428;2022-09-09T05:22:55;14.20;99.90
13186;DHT22;6658;53.080;7.428;2022-09-09T05:25:22;14.20;99.90
13186;DHT22;6658;53.080;7.428;2022-09-09T05:27:49;14.20;99.90
13186;DHT22;6658;53.080;7.428;2022-09-09T05:30:15;14.20;99.90
13186;DHT22;6658;53.080;7.428;2022-09-09T05:32:42;14.20;99.90
13186;DHT22;6658;53.080;7.428;2022-09-09T05:35:08;14.20;99.90
13186;DHT22;6658;53.080;7.428;2022-09-09T05:37:34;14.20;99.90
13186;DHT22;6658;53.080;7.428;2022-09-09T05:40:00;14.30;99.90
13186;DHT22;6658;53.080;7.428;2022-09-09T05:42:29;14.30;99.90
13186;DHT22;6658;53.080;7.428;2022-09-09T05:44:56;14.30;99.90
13186;DHT22;6658;53.080;7.428;2022-09-09T05:47:21;14.40;99.90
13186;DHT22;6658;53.080;7.428;2022-09-09T05:49:47;14.40;99.90
13186;DHT22;6658;53.080;7.428;2022-09-09T05:52:14;14.40;99.90
13186;DHT22;6658;53.080;7.428;2022-09-09T05:54:40;14.40;99.90
13186;DHT22;6658;53.080;7.428;2022-09-09T05:57:06;14.40;99.90
13186;DHT22;6658;53.080;7.428;2022-09-09T05:59:32;14.50;99.90
13186;DHT22;6658;53.080;7.428;2022-09-09T06:01:58;14.50;99.90
13186;DHT22;6658;53.080;7.428;2022-09-09T06:04:24;14.50;99.90
13186;DHT22;6658;53.080;7.428;2022-09-09T06:06:50;14.60;99.90
13186;DHT22;6658;53.080;7.428;2022-09-09T06:09:16;14.60;99.90
13186;DHT22;6658;53.080;7.428;2022-09-09T06:11:42;14.70;99.90
13186;DHT22;6658;53.080;7.428;2022-09-09T06:14:08;14.70;99.90
13186;DHT22;6658;53.080;7.428;2022-09-09T06:16:34;14.80;99.90
13186;DHT22;6658;53.080;7.428;2022-09-09T06:19:03;14.80;99.90
13186;DHT22;6658;53.080;7.428;2022-09-09T06:21:38;14.90;99.90
13186;DHT22;6658;53.080;7.428;2022-09-09T06:24:05;14.90;99.90
13186;DHT22;6658;53.080;7.428;2022-09-09T06:26:36;14.90;99.90
13186;DHT22;6658;53.080;7.428;2022-09-09T06:29:04;14.90;99.90
13186;DHT22;6658;53.080;7.428;2022-09-09T06:31:31;15.00;99.90
13186;DHT22;6658;53.080;7.428;2022-09-09T06:34:00;15.00;99.90
13186;DHT22;6658;53.080;7.428;2022-09-09T06:38:52;15.10;99.90
13186;DHT22;6658;53.080;7.428;2022-09-09T06:41:19;15.10;99.90
13186;DHT22;6658;53.080;7.428;2022-09-09T06:43:48;15.10;99.90
13186;DHT22;6658;53.080;7.428;2022-09-09T06:46:20;15.20;99.90
13186;DHT22;6658;53.080;7.428;2022-09-09T06:48:47;15.30;99.90
13186;DHT22;6658;53.080;7.428;2022-09-09T06:51:23;15.30;99.90
13186;DHT22;6658;53.080;7.428;2022-09-09T06:53:54;15.40;99.90
13186;DHT22;6658;53.080;7.428;2022-09-09T06:58:54;15.50;99.90
13186;DHT22;6658;53.080;7.428;2022-09-09T07:01:22;15.50;99.90
13186;DHT22;6658;53.080;7.428;2022-09-09T07:03:53;15.70;99.90
13186;DHT22;6658;53.080;7.428;2022-09-09T07:06:29;16.00;99.90
13186;DHT22;6658;53.080;7.428;2022-09-09T07:08:57;16.40;99.90
13186;DHT22;6658;53.080;7.428;2022-09-09T07:11:27;16.60;99.90
13186;DHT22;6658;53.080;7.428;2022-09-09T07:13:54;16.80;99.90
13186;DHT22;6658;53.080;7.428;2022-09-09T07:16:21;17.10;99.90
13186;DHT22;6658;53.080;7.428;2022-09-09T07:18:50;17.40;99.90
13186;DHT22;6658;53.080;7.428;2022-09-09T07:21:17;17.70;99.90
13186;DHT22;6658;53.080;7.428;2022-09-09T07:23:42;18.40;99.90
13186;DHT22;6658;53.080;7.428;2022-09-09T07:26:13;18.60;99.90
13186;DHT22;6658;53.080;7.428;2022-09-09T07:28:40;19.00;99.90
13186;DHT22;6658;53.080;7.428;2022-09-09T07:31:12;19.30;99.90
13186;DHT22;6658;53.080;7.428;2022-09-09T07:33:39;19.30;99.90
13186;DHT22;6658;53.080;7.428;2022-09-09T07:36:18;19.50;99.90
13186;DHT22;6658;53.080;7.428;2022-09-09T07:38:49;19.50;99.90
13186;DHT22;6658;53.080;7.428;2022-09-09T07:41:26;19.20;99.90
13186;DHT22;6658;53.080;7.428;2022-09-09T07:43:52;19.00;99.90
13186;DHT22;6658;53.080;7.428;2022-09-09T07:46:24;18.80;99.90
13186;DHT22;6658;53.080;7.428;2022-09-09T07:48:53;18.60;99.90
13186;DHT22;6658;53.080;7.428;2022-09-09T07:51:28;18.50;99.90
13186;DHT22;6658;53.080;7.428;2022-09-09T07:54:00;18.30;99.90
13186;DHT22;6658;53.080;7.428;2022-09-09T07:56:28;18.20;99.90
13186;DHT22;6658;53.080;7.428;2022-09-09T07:58:56;18.20;99.90
13186;DHT22;6658;53.080;7.428;2022-09-09T08:01:31;18.30;99.90
13186;DHT22;6658;53.080;7.428;2022-09-09T08:03:59;18.30;99.90
13186;DHT22;6658;53.080;7.428;2022-09-09T08:06:28;18.40;99.90
13186;DHT22;6658;53.080;7.428;2022-09-09T08:08:54;18.40;99.90
13186;DHT22;6658;53.080;7.428;2022-09-09T08:11:21;18.50;99.90
13186;DHT22;6658;53.080;7.428;2022-09-09T08:13:49;18.50;99.90
13186;DHT22;6658;53.080;7.428;2022-09-09T08:16:18;18.60;99.90
13186;DHT22;6658;53.080;7.428;2022-09-09T08:18:44;18.60;99.90
13186;DHT22;6658;53.080;7.428;2022-09-09T08:21:21;18.70;99.90
13186;DHT22;6658;53.080;7.428;2022-09-09T08:23:47;18.80;99.90
13186;DHT22;6658;53.080;7.428;2022-09-09T08:26:21;18.90;99.90
13186;DHT22;6658;53.080;7.428;2022-09-09T08:28:50;19.00;99.90
13186;DHT22;6658;53.080;7.428;2022-09-09T08:31:34;19.20;99.90
13186;DHT22;6658;53.080;7.428;2022-09-09T08:34:01;19.40;99.90
13186;DHT22;6658;53.080;7.428;2022-09-09T08:36:33;19.60;99.90
13186;DHT22;6658;53.080;7.428;2022-09-09T08:39:00;19.90;99.90
13186;DHT22;6658;53.080;7.428;2022-09-09T08:42:07;21.00;99.90
13186;DHT22;6658;53.080;7.428;2022-09-09T08:45:03;22.00;99.90
13186;DHT22;6658;53.080;7.428;2022-09-09T08:47:37;21.90;99.90
13186;DHT22;6658;53.080;7.428;2022-09-09T08:52:57;21.80;99.90
13186;DHT22;6658;53.080;7.428;2022-09-09T08:58:21;21.80;99.90
13186;DHT22;6658;53.080;7.428;2022-09-09T09:06:18;21.60;99.90
13186;DHT22;6658;53.080;7.428;2022-09-09T09:11:52;21.00;99.90
13186;DHT22;6658;53.080;7.428;2022-09-09T09:14:22;20.90;99.90
13186;DHT22;6658;53.080;7.428;2022-09-09T09:16:58;20.80;99.90
13186;DHT22;6658;53.080;7.428;2022-09-09T09:19:25;20.80;99.90
13186;DHT22;6658;53.080;7.428;2022-09-09T09:25:16;21.10;99.90
13186;DHT22;6658;53.080;7.428;2022-09-09T09:27:48;22.00;99.90
13186;DHT22;6658;53.080;7.428;2022-09-09T09:30:19;21.80;99.90
13186;DHT22;6658;53.080;7.428;2022-09-09T09:32:56;21.80;99.90
13186;DHT22;6658;53.080;7.428;2022-09-09T09:35:23;22.20;99.90
13186;DHT22;6658;53.080;7.428;2022-09-09T09:37:49;22.20;99.90
13186;DHT22;6658;53.080;7.428;2022-09-09T09:40:17;22.50;99.90
13186;DHT22;6658;53.080;7.428;2022-09-09T09:42:55;23.40;99.90
13186;DHT22;6658;53.080;7.428;2022-09-09T09:48:11;23.40;99.90
13186;DHT22;6658;53.080;7.428;2022-09-09T09:50:50;23.10;99.90
13186;DHT22;6658;53.080;7.428;2022-09-09T09:53:27;23.70;99.90
13186;DHT22;6658;53.080;7.428;2022-09-09T09:55:54;23.60;99.90
13186;DHT22;6658;53.080;7.428;2022-09-09T09:58:21;23.60;99.90
13186;DHT22;6658;53.080;7.428;2022-09-09T10:00:48;23.70;99.90
13186;DHT22;6658;53.080;7.428;2022-09-09T10:03:30;23.50;99.90
13186;DHT22;6658;53.080;7.428;2022-09-09T10:05:56;23.00;99.90
13186;DHT22;6658;53.080;7.428;2022-09-09T10:08:24;22.70;99.90
13186;DHT22;6658;53.080;7.428;2022-09-09T10:19:31;21.90;99.90
13186;DHT22;6658;53.080;7.428;2022-09-09T10:22:25;21.60;99.90
13186;DHT22;6658;53.080;7.428;2022-09-09T10:30:19;23.10;99.90
13186;DHT22;6658;53.080;7.428;2022-09-09T10:38:37;22.70;99.90
13186;DHT22;6658;53.080;7.428;2022-09-09T10:43:50;22.50;99.90
13186;DHT22;6658;53.080;7.428;2022-09-09T10:57:33;23.10;99.90
13186;DHT22;6658;53.080;7.428;2022-09-09T11:00:06;22.80;99.90
13186;DHT22;6658;53.080;7.428;2022-09-09T11:02:33;22.50;99.90
13186;DHT22;6658;53.080;7.428;2022-09-09T11:05:20;22.40;99.90
13186;DHT22;6658;53.080;7.428;2022-09-09T11:07:59;22.50;99.90
13186;DHT22;6658;53.080;7.428;2022-09-09T11:16:27;22.60;99.90
13186;DHT22;6658;53.080;7.428;2022-09-09T11:22:05;22.50;99.90
13186;DHT22;6658;53.080;7.428;2022-09-09T11:24:37;22.50;99.90
13186;DHT22;6658;53.080;7.428;2022-09-09T11:27:18;22.40;99.90
13186;DHT22;6658;53.080;7.428;2022-09-09T11:38:25;22.50;99.90
13186;DHT22;6658;53.080;7.428;2022-09-09T11:41:10;22.80;99.90
13186;DHT22;6658;53.080;7.428;2022-09-09T11:43:42;23.00;99.90
13186;DHT22;6658;53.080;7.428;2022-09-09T11:46:09;22.90;99.90
13186;DHT22;6658;53.080;7.428;2022-09-09T11:51:12;23.00;99.90
13186;DHT22;6658;53.080;7.428;2022-09-09T11:53:50;23.10;99.90
13186;DHT22;6658;53.080;7.428;2022-09-09T11:59:27;23.20;99.90
13186;DHT22;6658;53.080;7.428;2022-09-09T12:12:43;23.10;99.90
13186;DHT22;6658;53.080;7.428;2022-09-09T12:17:49;23.30;99.90
13186;DHT22;6658;53.080;7.428;2022-09-09T12:23:30;23.50;99.90
13186;DHT22;6658;53.080;7.428;2022-09-09T12:26:09;23.60;99.90
13186;DHT22;6658;53.080;7.428;2022-09-09T12:28:47;23.70;99.90
13186;DHT22;6658;53.080;7.428;2022-09-09T12:33:51;23.60;99.90
13186;DHT22;6658;53.080;7.428;2022-09-09T12:36:24;23.50;99.90
13186;DHT22;6658;53.080;7.428;2022-09-09T12:38:53;23.40;99.90
13186;DHT22;6658;53.080;7.428;2022-09-09T12:41:26;23.20;99.90
13186;DHT22;6658;53.080;7.428;2022-09-09T12:44:03;23.20;99.90
13186;DHT22;6658;53.080;7.428;2022-09-09T12:46:42;23.20;99.90
13186;DHT22;6658;53.080;7.428;2022-09-09T12:49:36;23.20;99.90
13186;DHT22;6658;53.080;7.428;2022-09-09T12:54:44;23.30;99.90
13186;DHT22;6658;53.080;7.428;2022-09-09T12:57:12;23.40;99.90
13186;DHT22;6658;53.080;7.428;2022-09-09T12:59:43;23.50;99.90
13186;DHT22;6658;53.080;7.428;2022-09-09T13:02:27;23.20;99.90
13186;DHT22;6658;53.080;7.428;2022-09-09T13:05:09;22.90;99.90
13186;DHT22;6658;53.080;7.428;2022-09-09T13:07:39;22.80;99.90
13186;DHT22;6658;53.080;7.428;2022-09-09T13:10:05;22.70;99.90
13186;DHT22;6658;53.080;7.428;2022-09-09T13:12:31;22.80;99.90
13186;DHT22;6658;53.080;7.428;2022-09-09T13:14:57;22.90;99.90
13186;DHT22;6658;53.080;7.428;2022-09-09T13:17:27;23.40;99.90
13186;DHT22;6658;53.080;7.428;2022-09-09T13:19:56;23.80;99.90
13186;DHT22;6658;53.080;7.428;2022-09-09T13:22:34;23.90;99.90
13186;DHT22;6658;53.080;7.428;2022-09-09T13:25:19;23.80;99.90
13186;DHT22;6658;53.080;7.428;2022-09-09T13:28:03;23.60;99.90
13186;DHT22;6658;53.080;7.428;2022-09-09T13:30:35;23.40;99.90
13186;DHT22;6658;53.080;7.428;2022-09-09T13:38:20;23.10;99.90
13186;DHT22;6658;53.080;7.428;2022-09-09T13:43:30;23.20;99.90
13186;DHT22;6658;53.080;7.428;2022-09-09T13:45:59;23.10;99.90
13186;DHT22;6658;53.080;7.428;2022-09-09T13:48:26;23.20;99.90
13186;DHT22;6658;53.080;7.428;2022-09-09T13:51:03;23.20;99.90
13186;DHT22;6658;53.080;7.428;2022-09-09T13:53:32;23.20;99.90
13186;DHT22;6658;53.080;7.428;2022-09-09T13:55:58;23.20;99.90
13186;DHT22;6658;53.080;7.428;2022-09-09T13:58:25;23.30;99.90
13186;DHT22;6658;53.080;7.428;2022-09-09T14:00:52;23.40;99.90
13186;DHT22;6658;53.080;7.428;2022-09-09T14:03:18;23.20;99.90
13186;DHT22;6658;53.080;7.428;2022-09-09T14:05:45;23.10;99.90
13186;DHT22;6658;53.080;7.428;2022-09-09T14:08:19;23.00;99.90
13186;DHT22;6658;53.080;7.428;2022-09-09T14:10:46;22.90;99.90
13186;DHT22;6658;53.080;7.428;2022-09-09T14:13:12;22.80;99.90
13186;DHT22;6658;53.080;7.428;2022-09-09T14:15:38;22.80;99.90
13186;DHT22;6658;53.080;7.428;2022-09-09T14:18:04;22.80;99.90
13186;DHT22;6658;53.080;7.428;2022-09-09T14:20:29;22.90;99.90
13186;DHT22;6658;53.080;7.428;2022-09-09T14:22:55;22.80;99.90
13186;DHT22;6658;53.080;7.428;2022-09-09T14:25:23;22.80;99.90
13186;DHT22;6658;53.080;7.428;2022-09-09T14:27:48;22.70;99.90
13186;DHT22;6658;53.080;7.428;2022-09-09T14:30:16;22.60;99.90
13186;DHT22;6658;53.080;7.428;2022-09-09T14:32:42;22.60;99.90
13186;DHT22;6658;53.080;7.428;2022-09-09T14:35:08;22.40;99.90
13186;DHT22;6658;53.080;7.428;2022-09-09T14:37:34;22.40;99.90
13186;DHT22;6658;53.080;7.428;2022-09-09T14:40:00;22.40;99.90
13186;DHT22;6658;53.080;7.428;2022-09-09T14:42:25;22.30;99.90
13186;DHT22;6658;53.080;7.428;2022-09-09T14:44:52;22.20;99.90
13186;DHT22;6658;53.080;7.428;2022-09-09T14:47:17;22.10;99.90
13186;DHT22;6658;53.080;7.428;2022-09-09T14:49:43;21.90;99.90
13186;DHT22;6658;53.080;7.428;2022-09-09T14:52:10;21.90;99.90
13186;DHT22;6658;53.080;7.428;2022-09-09T14:54:35;21.90;99.90
13186;DHT22;6658;53.080;7.428;2022-09-09T14:57:01;21.80;99.90
13186;DHT22;6658;53.080;7.428;2022-09-09T14:59:27;21.70;99.90
13186;DHT22;6658;53.080;7.428;2022-09-09T15:01:53;21.70;99.90
13186;DHT22;6658;53.080;7.428;2022-09-09T15:04:18;21.60;99.90
13186;DHT22;6658;53.080;7.428;2022-09-09T15:06:44;21.50;99.90
13186;DHT22;6658;53.080;7.428;2022-09-09T15:09:14;21.40;99.90
13186;DHT22;6658;53.080;7.428;2022-09-09T15:11:39;21.50;99.90
13186;DHT22;6658;53.080;7.428;2022-09-09T15:14:06;21.50;99.90
13186;DHT22;6658;53.080;7.428;2022-09-09T15:16:32;21.40;99.90
13186;DHT22;6658;53.080;7.428;2022-09-09T15:18:59;21.30;99.90
13186;DHT22;6658;53.080;7.428;2022-09-09T15:21:28;21.20;99.90
13186;DHT22;6658;53.080;7.428;2022-09-09T15:23:55;21.10;99.90
13186;DHT22;6658;53.080;7.428;2022-09-09T15:26:21;21.00;99.90
13186;DHT22;6658;53.080;7.428;2022-09-09T15:28:47;20.90;99.90
13186;DHT22;6658;53.080;7.428;2022-09-09T15:31:17;20.80;99.90
13186;DHT22;6658;53.080;7.428;2022-09-09T15:33:53;20.60;99.90
13186;DHT22;6658;53.080;7.428;2022-09-09T15:38:44;20.50;99.90
13186;DHT22;6658;53.080;7.428;2022-09-09T15:41:14;20.50;99.90
13186;DHT22;6658;53.080;7.428;2022-09-09T15:43:52;20.60;99.90
13186;DHT22;6658;53.080;7.428;2022-09-09T15:48:44;20.70;99.90
13186;DHT22;6658;53.080;7.428;2022-09-09T15:51:10;20.70;99.90
13186;DHT22;6658;53.080;7.428;2022-09-09T15:53:38;20.70;99.90
13186;DHT22;6658;53.080;7.428;2022-09-09T15:56:07;20.70;99.90
13186;DHT22;6658;53.080;7.428;2022-09-09T15:58:34;20.60;99.90
13186;DHT22;6658;53.080;7.428;2022-09-09T16:01:05;20.60;99.90
13186;DHT22;6658;53.080;7.428;2022-09-09T16:03:36;20.60;99.90
13186;DHT22;6658;53.080;7.428;2022-09-09T16:06:02;20.70;99.90
13186;DHT22;6658;53.080;7.428;2022-09-09T16:08:35;20.80;99.90
13186;DHT22;6658;53.080;7.428;2022-09-09T16:11:09;20.90;99.90
13186;DHT22;6658;53.080;7.428;2022-09-09T16:13:36;20.80;99.90
13186;DHT22;6658;53.080;7.428;2022-09-09T16:16:06;20.80;99.90
13186;DHT22;6658;53.080;7.428;2022-09-09T16:18:40;20.60;99.90
13186;DHT22;6658;53.080;7.428;2022-09-09T16:21:07;20.60;99.90
13186;DHT22;6658;53.080;7.428;2022-09-09T16:23:36;20.50;99.90
13186;DHT22;6658;53.080;7.428;2022-09-09T16:26:02;20.40;99.90
13186;DHT22;6658;53.080;7.428;2022-09-09T16:28:28;20.40;99.90
13186;DHT22;6658;53.080;7.428;2022-09-09T16:30:54;20.40;99.90
13186;DHT22;6658;53.080;7.428;2022-09-09T16:33:21;20.40;99.90
13186;DHT22;6658;53.080;7.428;2022-09-09T16:35:47;20.40;99.90
13186;DHT22;6658;53.080;7.428;2022-09-09T16:38:14;20.40;99.90
13186;DHT22;6658;53.080;7.428;2022-09-09T16:40:40;20.40;99.90
13186;DHT22;6658;53.080;7.428;2022-09-09T16:43:08;20.30;99.90
13186;DHT22;6658;53.080;7.428;2022-09-09T16:45:44;20.30;99.90
13186;DHT22;6658;53.080;7.428;2022-09-09T16:48:11;20.20;99.90
13186;DHT22;6658;53.080;7.428;2022-09-09T16:50:37;20.10;99.90
13186;DHT22;6658;53.080;7.428;2022-09-09T16:53:04;20.00;99.90
13186;DHT22;6658;53.080;7.428;2022-09-09T16:55:31;19.90;99.90
13186;DHT22;6658;53.080;7.428;2022-09-09T16:57:57;19.70;99.90
13186;DHT22;6658;53.080;7.428;2022-09-09T17:00:23;19.60;99.90
13186;DHT22;6658;53.080;7.428;2022-09-09T17:02:48;19.60;99.90
13186;DHT22;6658;53.080;7.428;2022-09-09T17:05:14;19.50;99.90
13186;DHT22;6658;53.080;7.428;2022-09-09T17:07:40;19.40;99.90
13186;DHT22;6658;53.080;7.428;2022-09-09T17:10:06;19.30;99.90
13186;DHT22;6658;53.080;7.428;2022-09-09T17:12:32;19.20;99.90
13186;DHT22;6658;53.080;7.428;2022-09-09T17:14:58;19.10;99.90
13186;DHT22;6658;53.080;7.428;2022-09-09T17:17:25;19.00;99.90
13186;DHT22;6658;53.080;7.428;2022-09-09T17:19:52;18.90;99.90
13186;DHT22;6658;53.080;7.428;2022-09-09T17:22:18;18.90;99.90
13186;DHT22;6658;53.080;7.428;2022-09-09T17:24:45;18.80;99.90
13186;DHT22;6658;53.080;7.428;2022-09-09T17:27:11;18.80;99.90
13186;DHT22;6658;53.080;7.428;2022-09-09T17:29:38;18.70;99.90
13186;DHT22;6658;53.080;7.428;2022-09-09T17:32:05;18.70;99.90
13186;DHT22;6658;53.080;7.428;2022-09-09T17:34:33;18.60;99.90
13186;DHT22;6658;53.080;7.428;2022-09-09T17:36:58;18.60;99.90
13186;DHT22;6658;53.080;7.428;2022-09-09T17:39:24;18.60;99.90
13186;DHT22;6658;53.080;7.428;2022-09-09T17:41:51;18.50;99.90
13186;DHT22;6658;53.080;7.428;2022-09-09T17:44:17;18.50;99.90
13186;DHT22;6658;53.080;7.428;2022-09-09T17:46:45;18.50;99.90
13186;DHT22;6658;53.080;7.428;2022-09-09T17:49:15;18.40;99.90
13186;DHT22;6658;53.080;7.428;2022-09-09T17:51:43;18.40;99.90
13186;DHT22;6658;53.080;7.428;2022-09-09T17:54:17;18.40;99.90
13186;DHT22;6658;53.080;7.428;2022-09-09T17:56:44;18.30;99.90
13186;DHT22;6658;53.080;7.428;2022-09-09T17:59:11;18.30;99.90
13186;DHT22;6658;53.080;7.428;2022-09-09T18:01:40;18.30;99.90
13186;DHT22;6658;53.080;7.428;2022-09-09T18:04:08;18.20;99.90
13186;DHT22;6658;53.080;7.428;2022-09-09T18:06:39;18.20;99.90
13186;DHT22;6658;53.080;7.428;2022-09-09T18:09:14;18.20;99.90
13186;DHT22;6658;53.080;7.428;2022-09-09T18:11:44;18.20;99.90
13186;DHT22;6658;53.080;7.428;2022-09-09T18:14:16;18.10;99.90
13186;DHT22;6658;53.080;7.428;2022-09-09T18:16:43;18.00;99.90
13186;DHT22;6658;53.080;7.428;2022-09-09T18:19:11;18.00;99.90
13186;DHT22;6658;53.080;7.428;2022-09-09T18:21:39;18.00;99.90
13186;DHT22;6658;53.080;7.428;2022-09-09T18:24:06;17.90;99.90
13186;DHT22;6658;53.080;7.428;2022-09-09T18:26:32;17.80;99.90
13186;DHT22;6658;53.080;7.428;2022-09-09T18:29:05;17.80;99.90
13186;DHT22;6658;53.080;7.428;2022-09-09T18:31:32;17.70;99.90
13186;DHT22;6658;53.080;7.428;2022-09-09T18:34:01;17.60;99.90
13186;DHT22;6658;53.080;7.428;2022-09-09T18:36:30;17.60;99.90
13186;DHT22;6658;53.080;7.428;2022-09-09T18:38:57;17.50;99.90